createdAt,value
2022-12-28T00:01:54.427Z,100514.56
2022-12-28T00:04:22.752Z,100508.37
2022-12-28T00:06:50.908Z,100509.72
2022-12-28T00:09:18.963Z,100502.56
2022-12-28T00:11:47.325Z,100506.13
2022-12-28T00:14:15.389Z,100504.56
2022-12-28T00:16:43.931Z,100510.53
2022-12-28T00:19:14.693Z,100505.44
2022-12-28T00:21:44.139Z,100507.25
2022-12-28T00:24:19.324Z,100511.34
2022-12-28T00:26:47.308Z,100513.66
2022-12-28T00:29:16.245Z,100510.22
2022-12-28T00:31:45.938Z,100505.03
2022-12-28T00:34:14.800Z,100501.81
2022-12-28T00:37:10.477Z,100500.12
2022-12-28T00:39:31.354Z,100507.81
2022-12-28T00:42:00.229Z,100516.88
2022-12-28T00:44:28.929Z,100512.06
2022-12-28T00:46:56.876Z,100507.22
2022-12-28T00:49:25.214Z,100508.69
2022-12-28T00:51:54.119Z,100509.03
2022-12-28T00:54:23.801Z,100516.91
2022-12-28T00:56:52.094Z,100517.78
2022-12-28T00:59:20.102Z,100519.38
2022-12-28T01:01:48.179Z,100517.22
2022-12-28T01:04:16.504Z,100523.47
2022-12-28T01:06:44.435Z,100528.72
2022-12-28T01:09:12.351Z,100533.59
2022-12-28T01:11:40.647Z,100533.56
2022-12-28T01:14:08.610Z,100532.00
2022-12-28T01:16:37.106Z,100530.38
2022-12-28T01:19:07.317Z,100528.87
2022-12-28T01:21:36.578Z,100527.59
2022-12-28T01:24:05.932Z,100535.81
2022-12-28T01:26:34.852Z,100536.41
2022-12-28T01:29:02.887Z,100539.56
2022-12-28T01:31:33.210Z,100540.25
2022-12-28T01:34:02.822Z,100545.50
2022-12-28T01:36:32.729Z,100547.09
2022-12-28T01:39:03.951Z,100537.91
2022-12-28T01:41:36.690Z,100540.03
2022-12-28T01:44:05.381Z,100538.16
2022-12-28T01:46:50.359Z,100538.59
2022-12-28T01:49:24.330Z,100539.56
2022-12-28T01:52:14.197Z,100532.13
2022-12-28T01:54:51.749Z,100522.06
2022-12-28T01:57:23.099Z,100526.00
2022-12-28T01:59:55.045Z,100517.09
2022-12-28T02:02:23.962Z,100512.50
2022-12-28T02:04:53.871Z,100510.41
2022-12-28T02:07:48.149Z,100505.59
2022-12-28T02:10:41.475Z,100507.03
2022-12-28T02:13:05.902Z,100501.72
2022-12-28T02:15:34.247Z,100506.53
2022-12-28T02:18:02.448Z,100502.63
2022-12-28T02:20:44.092Z,100504.69
2022-12-28T02:23:24.452Z,100495.22
2022-12-28T02:26:28.519Z,100499.34
2022-12-28T02:29:26.011Z,100497.91
2022-12-28T02:32:12.888Z,100498.66
2022-12-28T02:34:46.891Z,100508.16
2022-12-28T02:37:29.448Z,100503.84
2022-12-28T02:40:03.879Z,100502.56
2022-12-28T02:42:32.029Z,100501.91
2022-12-28T02:45:19.068Z,100506.56
2022-12-28T02:48:05.876Z,100502.53
2022-12-28T02:50:46.259Z,100500.78
2022-12-28T02:53:26.386Z,100502.75
2022-12-28T02:56:42.830Z,100502.16
2022-12-28T02:59:28.279Z,100502.25
2022-12-28T03:02:32.987Z,100497.66
2022-12-28T03:05:58.268Z,100505.72
2022-12-28T03:08:37.961Z,100509.34
2022-12-28T03:11:11.157Z,100495.06
2022-12-28T03:13:52.820Z,100496.94
2022-12-28T03:16:20.920Z,100496.94
2022-12-28T03:19:27.722Z,100484.25
2022-12-28T03:22:16.155Z,100483.69
2022-12-28T03:25:04.350Z,100474.22
2022-12-28T03:27:51.978Z,100471.13
2022-12-28T03:30:40.152Z,100476.19
2022-12-28T03:33:11.170Z,100478.25
2022-12-28T03:36:20.867Z,100480.56
2022-12-28T03:39:21.607Z,100465.06
2022-12-28T03:42:19.177Z,100465.94
2022-12-28T03:44:54.268Z,100462.69
2022-12-28T03:47:25.450Z,100456.97
2022-12-28T03:49:53.378Z,100458.53
2022-12-28T03:52:21.628Z,100461.06
2022-12-28T03:54:49.952Z,100456.91
2022-12-28T03:57:19.869Z,100455.31
2022-12-28T03:59:48.887Z,100450.91
2022-12-28T04:02:17.829Z,100441.16
2022-12-28T04:04:46.254Z,100447.19
2022-12-28T04:07:14.161Z,100441.91
2022-12-28T04:09:42.150Z,100439.28
2022-12-28T04:12:12.491Z,100436.94
2022-12-28T04:14:41.694Z,100431.41
2022-12-28T04:17:09.623Z,100427.66
2022-12-28T04:19:38.209Z,100432.16
2022-12-28T04:22:06.206Z,100422.50
2022-12-28T04:24:35.753Z,100420.53
2022-12-28T04:27:04.230Z,100413.44
2022-12-28T04:29:32.531Z,100417.34
2022-12-28T04:32:00.812Z,100412.12
2022-12-28T04:34:29.280Z,100412.12
2022-12-28T04:36:57.652Z,100412.12
2022-12-28T04:39:25.680Z,100403.81
2022-12-28T04:41:54.011Z,100402.59
2022-12-28T04:44:21.992Z,100399.44
2022-12-28T04:46:49.885Z,100413.00
2022-12-28T04:49:18.157Z,100416.37
2022-12-28T04:51:46.199Z,100415.91
2022-12-28T04:54:14.657Z,100419.66
2022-12-28T04:56:42.930Z,100424.63
2022-12-28T04:59:11.019Z,100421.84
2022-12-28T05:01:39.111Z,100422.12
2022-12-28T05:04:07.542Z,100425.50
2022-12-28T05:06:35.555Z,100427.53
2022-12-28T05:09:03.593Z,100426.38
2022-12-28T05:11:32.190Z,100429.41
2022-12-28T05:14:00.265Z,100423.00
2022-12-28T05:16:29.090Z,100424.03
2022-12-28T05:18:58.220Z,100421.78
2022-12-28T05:21:27.766Z,100429.38
2022-12-28T05:23:56.530Z,100422.50
2022-12-28T05:26:27.218Z,100427.56
2022-12-28T05:28:56.014Z,100431.81
2022-12-28T05:31:24.768Z,100423.81
2022-12-28T05:33:53.958Z,100423.84
2022-12-28T05:36:24.258Z,100429.00
2022-12-28T05:38:53.797Z,100422.00
2022-12-28T05:41:24.459Z,100416.19
2022-12-28T05:43:52.890Z,100416.84
2022-12-28T05:46:32.876Z,100424.28
2022-12-28T05:49:01.984Z,100424.94
2022-12-28T05:51:32.068Z,100432.56
2022-12-28T05:54:01.175Z,100428.13
2022-12-28T05:56:30.510Z,100423.44
2022-12-28T05:59:06.316Z,100430.69
2022-12-28T06:01:38.676Z,100433.00
2022-12-28T06:04:11.215Z,100433.81
2022-12-28T06:06:39.191Z,100435.53
2022-12-28T06:09:07.564Z,100432.22
2022-12-28T06:11:35.629Z,100433.63
2022-12-28T06:14:06.096Z,100432.38
2022-12-28T06:16:40.037Z,100428.72
2022-12-28T06:19:10.167Z,100425.62
2022-12-28T06:21:39.869Z,100425.94
2022-12-28T06:24:08.799Z,100428.59
2022-12-28T06:26:38.409Z,100443.41
2022-12-28T06:29:07.019Z,100424.66
2022-12-28T06:31:40.079Z,100426.03
2022-12-28T06:34:09.683Z,100429.16
2022-12-28T06:36:43.468Z,100427.47
2022-12-28T06:39:13.963Z,100437.28
2022-12-28T06:41:42.588Z,100442.41
2022-12-28T06:44:12.657Z,100437.56
2022-12-28T06:46:41.199Z,100435.97
2022-12-28T06:49:09.517Z,100439.34
2022-12-28T06:51:40.760Z,100441.31
2022-12-28T06:54:10.039Z,100441.66
2022-12-28T06:56:38.297Z,100455.53
2022-12-28T06:59:06.993Z,100448.31
2022-12-28T07:01:40.183Z,100451.72
2022-12-28T07:04:09.385Z,100447.81
2022-12-28T07:06:42.843Z,100447.88
2022-12-28T07:09:14.017Z,100428.59
2022-12-28T07:11:43.419Z,100444.28
2022-12-28T07:14:11.895Z,100443.69
2022-12-28T07:19:06.846Z,100437.63
2022-12-28T07:21:37.200Z,100433.09
2022-12-28T07:24:06.259Z,100437.16
2022-12-28T07:26:36.140Z,100430.37
2022-12-28T07:29:05.729Z,100429.34
2022-12-28T07:31:43.625Z,100419.13
2022-12-28T07:34:12.868Z,100423.22
2022-12-28T07:36:40.882Z,100425.25
2022-12-28T07:39:09.230Z,100423.56
2022-12-28T07:41:37.947Z,100426.44
2022-12-28T07:44:06.520Z,100428.16
2022-12-28T07:46:36.311Z,100424.06
2022-12-28T07:49:05.134Z,100424.81
2022-12-28T07:51:35.429Z,100430.59
2022-12-28T07:54:04.278Z,100431.59
2022-12-28T07:59:05.373Z,100438.16
2022-12-28T08:01:35.741Z,100434.94
2022-12-28T08:04:06.532Z,100446.94
2022-12-28T08:06:36.668Z,100448.56
2022-12-28T08:09:05.908Z,100449.78
2022-12-28T08:11:36.549Z,100438.78
2022-12-28T08:14:06.150Z,100439.50
2022-12-28T08:16:36.600Z,100435.22
2022-12-28T08:19:05.909Z,100428.97
2022-12-28T08:21:38.590Z,100426.66
2022-12-28T08:24:07.849Z,100427.84
2022-12-28T08:26:38.127Z,100425.69
2022-12-28T08:29:14.925Z,100425.06
2022-12-28T08:31:43.598Z,100414.53
2022-12-28T08:34:15.504Z,100417.31
2022-12-28T08:36:43.451Z,100415.06
2022-12-28T08:39:11.904Z,100414.13
2022-12-28T08:41:39.840Z,100422.41
2022-12-28T08:44:07.939Z,100422.44
2022-12-28T08:46:37.093Z,100430.03
2022-12-28T08:49:06.073Z,100433.41
2022-12-28T08:51:41.937Z,100425.31
2022-12-28T08:54:12.383Z,100420.44
2022-12-28T08:56:42.806Z,100426.87
2022-12-28T08:59:16.815Z,100433.91
2022-12-28T09:01:46.192Z,100425.97
2022-12-28T09:04:19.691Z,100428.38
2022-12-28T09:06:47.927Z,100426.03
2022-12-28T09:09:17.700Z,100428.44
2022-12-28T09:11:46.524Z,100430.09
2022-12-28T09:14:22.754Z,100431.69
2022-12-28T09:16:54.093Z,100412.78
2022-12-28T09:19:22.392Z,100406.66
2022-12-28T09:21:52.811Z,100393.63
2022-12-28T09:24:22.554Z,100394.25
2022-12-28T09:26:53.067Z,100388.94
2022-12-28T09:29:21.988Z,100389.34
2022-12-28T09:31:50.096Z,100386.66
2022-12-28T09:37:07.820Z,100380.63
2022-12-28T09:39:35.901Z,100381.59
2022-12-28T09:42:17.669Z,100383.78
2022-12-28T09:45:01.396Z,100395.94
2022-12-28T09:47:41.247Z,100384.09
2022-12-28T09:50:09.538Z,100381.09
2022-12-28T09:52:49.831Z,100376.00
2022-12-28T09:55:19.463Z,100369.50
2022-12-28T09:57:54.802Z,100361.44
2022-12-28T10:00:25.686Z,100362.69
2022-12-28T10:03:01.666Z,100353.88
2022-12-28T10:05:30.200Z,100345.06
2022-12-28T10:07:59.407Z,100345.16
2022-12-28T10:10:27.744Z,100347.56
2022-12-28T10:12:56.271Z,100348.34
2022-12-28T10:15:28.121Z,100334.25
2022-12-28T10:17:56.270Z,100328.34
2022-12-28T10:20:24.651Z,100325.03
2022-12-28T10:22:56.769Z,100330.41
2022-12-28T10:25:27.983Z,100329.44
2022-12-28T10:27:56.274Z,100325.91
2022-12-28T10:30:29.978Z,100327.44
2022-12-28T10:33:03.707Z,100328.59
2022-12-28T10:35:41.224Z,100332.37
2022-12-28T10:38:27.947Z,100338.37
2022-12-28T10:41:03.290Z,100331.19
2022-12-28T10:43:34.617Z,100330.03
2022-12-28T10:46:04.716Z,100339.09
2022-12-28T10:48:36.260Z,100327.03
2022-12-28T10:51:12.082Z,100332.53
2022-12-28T10:53:40.075Z,100336.00
2022-12-28T10:56:11.520Z,100332.97
2022-12-28T10:58:41.070Z,100334.34
2022-12-28T11:01:12.804Z,100333.66
2022-12-28T11:03:45.558Z,100331.72
2022-12-28T11:06:26.734Z,100336.03
2022-12-28T11:09:03.976Z,100334.81
2022-12-28T11:11:32.956Z,100337.84
2022-12-28T11:14:07.214Z,100328.53
2022-12-28T11:16:37.829Z,100319.88
2022-12-28T11:19:06.058Z,100311.94
2022-12-28T11:21:35.507Z,100307.91
2022-12-28T11:24:04.640Z,100314.03
2022-12-28T11:26:33.486Z,100299.38
2022-12-28T11:29:02.271Z,100305.13
2022-12-28T11:31:45.653Z,100307.09
2022-12-28T11:34:18.671Z,100293.72
2022-12-28T11:36:47.378Z,100283.75
2022-12-28T11:39:27.704Z,100274.41
2022-12-28T11:42:28.108Z,100274.97
2022-12-28T11:44:45.697Z,100277.16
2022-12-28T11:47:17.117Z,100272.59
2022-12-28T11:49:48.362Z,100277.59
2022-12-28T11:52:31.115Z,100265.41
2022-12-28T11:55:01.330Z,100261.78
2022-12-28T11:57:39.048Z,100256.34
2022-12-28T12:00:23.019Z,100241.53
2022-12-28T12:02:57.097Z,100239.41
2022-12-28T12:05:40.256Z,100239.97
2022-12-28T12:08:31.871Z,100235.59
2022-12-28T12:11:21.381Z,100232.41
2022-12-28T12:13:51.371Z,100230.84
2022-12-28T12:16:23.705Z,100217.94
2022-12-28T12:18:57.889Z,100221.47
2022-12-28T12:21:35.961Z,100224.22
2022-12-28T12:24:40.088Z,100211.88
2022-12-28T12:27:19.958Z,100212.53
2022-12-28T12:29:52.031Z,100203.50
2022-12-28T12:47:05.907Z,100194.09
2022-12-28T12:49:44.151Z,100194.09
2022-12-28T12:52:31.041Z,100190.84
2022-12-28T12:55:06.035Z,100190.06
2022-12-28T12:57:42.034Z,100187.53
2022-12-28T13:00:13.995Z,100179.81
2022-12-28T13:02:59.538Z,100182.53
2022-12-28T13:05:29.246Z,100170.50
2022-12-28T13:07:59.550Z,100169.91
2022-12-28T13:10:41.454Z,100170.94
2022-12-28T13:13:19.800Z,100169.63
2022-12-28T13:15:48.678Z,100171.88
2022-12-28T13:18:44.530Z,100172.22
2022-12-28T13:21:12.637Z,100165.34
2022-12-28T13:23:45.509Z,100153.34
2022-12-28T13:26:15.364Z,100145.87
2022-12-28T13:29:00.257Z,100148.94
2022-12-28T13:31:35.476Z,100151.28
2022-12-28T13:34:06.631Z,100145.78
2022-12-28T13:36:35.133Z,100146.38
2022-12-28T13:39:12.671Z,100152.53
2022-12-28T13:41:52.452Z,100142.75
2022-12-28T13:44:38.039Z,100143.50
2022-12-28T13:47:06.429Z,100129.91
2022-12-28T13:49:44.200Z,100122.25
2022-12-28T13:52:17.873Z,100124.03
2022-12-28T13:54:55.517Z,100114.16
2022-12-28T14:00:17.384Z,100109.00
2022-12-28T14:02:46.555Z,100109.34
2022-12-28T14:05:28.883Z,100102.22
2022-12-28T14:07:58.852Z,100091.19
2022-12-28T14:10:27.883Z,100092.38
2022-12-28T14:12:56.834Z,100093.91
2022-12-28T14:15:25.527Z,100102.00
2022-12-28T14:17:53.948Z,100097.28
2022-12-28T14:20:22.005Z,100098.34
2022-12-28T14:22:50.477Z,100097.63
2022-12-28T14:25:20.127Z,100101.31
2022-12-28T14:27:57.704Z,100092.69
2022-12-28T14:30:28.818Z,100103.81
2022-12-28T14:32:57.233Z,100104.87
2022-12-28T14:35:27.820Z,100097.28
2022-12-28T14:37:58.629Z,100105.44
2022-12-28T14:40:37.963Z,100107.19
2022-12-28T14:43:38.521Z,100109.13
2022-12-28T14:46:32.282Z,100105.84
2022-12-28T14:49:01.750Z,100109.78
2022-12-28T14:51:31.847Z,100102.94
2022-12-28T14:54:12.333Z,100103.94
2022-12-28T14:56:41.912Z,100103.81
2022-12-28T14:59:20.086Z,100109.31
2022-12-28T15:01:49.117Z,100107.47
2022-12-28T15:04:38.458Z,100114.56
2022-12-28T15:07:09.153Z,100116.91
2022-12-28T15:09:37.261Z,100115.41
2022-12-28T15:12:12.513Z,100104.25
2022-12-28T15:14:41.193Z,100105.63
2022-12-28T15:17:10.108Z,100104.09
2022-12-28T15:19:38.265Z,100098.09
2022-12-28T15:22:06.552Z,100106.41
2022-12-28T15:24:35.455Z,100108.50
2022-12-28T15:27:03.708Z,100112.50
2022-12-28T15:32:20.177Z,100123.62
2022-12-28T15:34:48.473Z,100115.91
2022-12-28T15:37:16.522Z,100112.19
2022-12-28T15:39:44.483Z,100099.78
2022-12-28T15:42:12.792Z,100106.19
2022-12-28T15:44:40.762Z,100102.03
2022-12-28T15:47:08.904Z,100107.53
2022-12-28T15:49:37.320Z,100106.62
2022-12-28T15:52:05.806Z,100103.69
2022-12-28T15:54:33.976Z,100105.13
2022-12-28T15:57:02.601Z,100110.66
2022-12-28T15:59:30.973Z,100114.66
2022-12-28T16:01:59.132Z,100126.09
2022-12-28T16:04:27.988Z,100124.59
2022-12-28T16:06:56.930Z,100126.56
2022-12-28T16:09:24.979Z,100114.66
2022-12-28T16:11:55.285Z,100110.38
2022-12-28T16:14:23.913Z,100104.75
2022-12-28T16:16:51.949Z,100096.16
2022-12-28T16:19:20.397Z,100096.88
2022-12-28T16:21:51.576Z,100089.97
2022-12-28T16:24:21.764Z,100099.28
2022-12-28T16:26:50.102Z,100112.06
2022-12-28T16:29:18.260Z,100102.31
2022-12-28T16:31:46.447Z,100110.75
2022-12-28T16:34:23.558Z,100105.97
2022-12-28T16:36:57.206Z,100101.59
2022-12-28T16:39:28.564Z,100094.19
2022-12-28T16:41:58.337Z,100088.97
2022-12-28T16:44:28.027Z,100097.16
2022-12-28T16:46:58.675Z,100096.28
2022-12-28T16:49:27.938Z,100093.22
2022-12-28T16:51:56.354Z,100097.13
2022-12-28T16:54:26.567Z,100094.78
2022-12-28T16:56:55.372Z,100094.13
2022-12-28T16:59:25.920Z,100102.41
2022-12-28T17:01:56.174Z,100093.59
2022-12-28T17:04:24.586Z,100101.50
2022-12-28T17:06:53.115Z,100098.56
2022-12-28T17:09:21.866Z,100101.53
2022-12-28T17:11:50.987Z,100094.37
2022-12-28T17:17:07.836Z,100108.16
2022-12-28T17:19:36.026Z,100101.72
2022-12-28T17:22:04.881Z,100099.81
2022-12-28T17:24:33.367Z,100090.78
2022-12-28T17:27:07.495Z,100091.47
2022-12-28T17:29:37.891Z,100098.94
2022-12-28T17:32:06.631Z,100099.38
2022-12-28T17:34:35.055Z,100093.12
2022-12-28T17:37:04.125Z,100093.66
2022-12-28T17:39:39.426Z,100082.25
2022-12-28T17:42:09.613Z,100085.75
2022-12-28T17:44:38.181Z,100086.59
2022-12-28T17:47:06.278Z,100082.75
2022-12-28T17:49:34.758Z,100079.00
2022-12-28T17:52:02.963Z,100073.12
2022-12-28T17:54:31.079Z,100057.91
2022-12-28T17:57:00.178Z,100058.38
2022-12-28T17:59:28.242Z,100049.50
2022-12-28T18:01:56.920Z,100049.22
2022-12-28T18:04:25.621Z,100047.16
2022-12-28T18:06:53.565Z,100037.06
2022-12-28T18:09:27.336Z,100035.97
2022-12-28T18:11:56.123Z,100039.00
2022-12-28T18:14:25.127Z,100032.03
2022-12-28T18:16:53.918Z,100026.69
2022-12-28T18:19:22.417Z,100033.97
2022-12-28T18:21:50.481Z,100025.25
2022-12-28T18:24:21.101Z,100020.63
2022-12-28T18:26:49.711Z,100020.84
2022-12-28T18:29:17.716Z,100020.03
2022-12-28T18:31:45.727Z,100026.69
2022-12-28T18:34:14.683Z,100023.78
2022-12-28T18:36:42.677Z,100035.38
2022-12-28T18:39:10.698Z,100022.34
2022-12-28T18:41:39.088Z,100023.06
2022-12-28T18:44:07.009Z,100038.34
2022-12-28T18:46:37.629Z,100041.91
2022-12-28T18:49:06.055Z,100041.69
2022-12-28T18:51:34.064Z,100039.47
2022-12-28T18:54:02.011Z,100050.31
2022-12-28T18:56:30.567Z,100043.38
2022-12-28T18:58:59.215Z,100045.03
2022-12-28T19:04:17.818Z,100038.47
2022-12-28T19:06:46.050Z,100038.09
2022-12-28T19:09:14.277Z,100047.78
2022-12-28T19:11:43.097Z,100049.19
2022-12-28T19:14:13.340Z,100041.41
2022-12-28T19:16:42.225Z,100044.97
2022-12-28T19:19:12.110Z,100042.28
2022-12-28T19:21:41.366Z,100053.78
2022-12-28T19:24:19.188Z,100055.66
2022-12-28T19:26:47.760Z,100052.62
2022-12-28T19:29:16.613Z,100050.69
2022-12-28T19:31:44.679Z,100043.38
2022-12-28T19:34:12.977Z,100033.50
2022-12-28T19:36:40.960Z,100034.69
2022-12-28T19:39:08.883Z,100040.41
2022-12-28T19:41:37.100Z,100026.53
2022-12-28T19:44:05.262Z,100035.06
2022-12-28T19:46:33.406Z,100030.66
2022-12-28T19:49:04.075Z,100023.63
2022-12-28T19:51:33.038Z,100026.94
2022-12-28T19:54:02.154Z,100023.09
2022-12-28T19:56:30.196Z,100026.81
2022-12-28T19:59:05.436Z,100022.19
2022-12-28T20:01:37.160Z,100018.19
2022-12-28T20:04:13.325Z,100015.31
2022-12-28T20:06:44.026Z,100013.66
2022-12-28T20:09:13.537Z,100015.31
2022-12-28T20:11:42.283Z,100015.19
2022-12-28T20:14:12.334Z,100015.56
2022-12-28T20:16:40.634Z,100010.97
2022-12-28T20:19:10.614Z,100013.19
2022-12-28T20:21:42.126Z,100008.34
2022-12-28T20:24:12.180Z,100007.72
2022-12-28T20:26:40.900Z,100001.56
2022-12-28T20:29:09.087Z,99998.75
2022-12-28T20:31:37.564Z,100004.72
2022-12-28T20:34:06.300Z,99999.72
2022-12-28T20:36:34.588Z,99997.75
2022-12-28T20:39:03.421Z,99997.66
2022-12-28T20:41:51.234Z,100004.31
2022-12-28T20:44:28.438Z,100006.50
2022-12-28T20:46:57.803Z,99992.31
2022-12-28T20:49:27.070Z,99992.91
2022-12-28T20:51:55.404Z,100002.28
2022-12-28T20:54:23.789Z,100001.66
2022-12-28T20:56:55.821Z,99995.91
2022-12-28T20:59:26.016Z,99994.34
2022-12-28T21:01:55.017Z,99992.00
2022-12-28T21:04:24.795Z,99986.53
2022-12-28T21:06:54.495Z,99987.13
2022-12-28T21:09:23.191Z,99983.22
2022-12-28T21:11:51.336Z,99983.50
2022-12-28T21:14:19.659Z,99980.75
2022-12-28T21:16:48.196Z,99979.28
2022-12-28T21:19:16.407Z,99983.94
2022-12-28T21:21:44.729Z,99973.94
2022-12-28T21:24:13.068Z,99988.28
2022-12-28T21:26:41.025Z,99989.97
2022-12-28T21:29:09.149Z,99984.41
2022-12-28T21:31:37.463Z,99990.31
2022-12-28T21:34:05.398Z,99988.69
2022-12-28T21:36:33.320Z,99984.53
2022-12-28T21:39:01.560Z,99982.12
2022-12-28T21:42:04.847Z,99976.44
2022-12-28T21:44:33.119Z,99963.59
2022-12-28T21:47:01.039Z,99970.19
2022-12-28T21:49:29.031Z,99967.84
2022-12-28T21:51:59.798Z,99955.34
2022-12-28T21:54:27.918Z,99959.97
2022-12-28T21:56:57.207Z,99952.78
2022-12-28T21:59:26.408Z,99950.28
2022-12-28T22:02:13.343Z,99952.25
2022-12-28T22:05:03.286Z,99952.56
2022-12-28T22:07:32.192Z,99952.28
2022-12-28T22:10:19.235Z,99946.06
2022-12-28T22:12:47.947Z,99951.28
2022-12-28T22:15:39.558Z,99955.06
2022-12-28T22:21:16.614Z,99946.16
2022-12-28T22:23:44.521Z,99942.06
2022-12-28T22:26:12.518Z,99949.84
2022-12-28T22:28:40.709Z,99943.38
2022-12-28T22:31:09.220Z,99937.78
2022-12-28T22:33:37.175Z,99935.75
2022-12-28T22:36:16.858Z,99929.50
2022-12-28T22:38:45.135Z,99921.09
2022-12-28T22:41:13.528Z,99909.97
2022-12-28T22:43:41.582Z,99915.34
2022-12-28T22:46:11.501Z,99906.25
2022-12-28T22:48:39.930Z,99902.28
2022-12-28T22:51:10.211Z,99913.16
2022-12-28T22:53:38.477Z,99900.44
2022-12-28T22:56:11.807Z,99892.03
2022-12-28T22:58:39.687Z,99896.41
2022-12-28T23:01:10.430Z,99897.78
2022-12-28T23:03:42.466Z,99891.19
2022-12-28T23:06:12.897Z,99894.81
2022-12-28T23:08:41.087Z,99897.59
2022-12-28T23:11:30.849Z,99889.63
2022-12-28T23:14:22.548Z,99887.13
2022-12-28T23:16:50.464Z,99880.22
2022-12-28T23:19:37.562Z,99881.44
2022-12-28T23:22:25.337Z,99874.97
2022-12-28T23:25:12.225Z,99869.06
2022-12-28T23:27:41.596Z,99862.97
2022-12-28T23:30:17.802Z,99871.81
2022-12-28T23:32:50.303Z,99873.00
2022-12-28T23:35:19.327Z,99873.72
2022-12-28T23:37:47.572Z,99858.09
2022-12-28T23:40:17.731Z,99862.66
2022-12-28T23:42:46.701Z,99861.75
2022-12-28T23:45:16.862Z,99859.06
2022-12-28T23:47:45.867Z,99856.50
2022-12-28T23:50:15.737Z,99849.75
2022-12-28T23:52:43.725Z,99847.63
2022-12-28T23:55:12.265Z,99856.03
2022-12-28T23:57:40.651Z,99850.69
